createdAt,value
2017-09-12T00:00:07.191Z,11.26
2017-09-12T00:02:35.854Z,11.18
2017-09-12T00:05:04.191Z,11.27
2017-09-12T00:07:32.558Z,11.30
2017-09-12T00:10:00.899Z,11.34
2017-09-12T00:12:29.284Z,11.37
2017-09-12T00:14:57.611Z,11.38
2017-09-12T00:17:26.137Z,11.40
2017-09-12T00:19:54.498Z,11.40
2017-09-12T00:22:22.830Z,11.43
2017-09-12T00:24:51.515Z,11.40
2017-09-12T00:27:19.846Z,11.41
2017-09-12T00:29:48.211Z,11.41
2017-09-12T00:32:16.562Z,11.42
2017-09-12T00:34:44.898Z,11.50
2017-09-12T00:37:13.229Z,11.52
2017-09-12T00:39:41.787Z,11.48
2017-09-12T00:42:10.146Z,11.48
2017-09-12T00:44:38.643Z,11.50
2017-09-12T00:47:06.994Z,11.51
2017-09-12T00:49:35.331Z,11.44
2017-09-12T00:52:03.663Z,11.42
2017-09-12T00:54:31.990Z,11.42
2017-09-12T00:57:00.339Z,11.46
2017-09-12T00:59:28.706Z,11.39
2017-09-12T01:01:57.123Z,11.35
2017-09-12T01:04:25.470Z,11.40
2017-09-12T01:06:53.864Z,11.42
2017-09-12T01:09:22.252Z,11.50
2017-09-12T01:11:50.583Z,11.49
2017-09-12T01:14:18.915Z,11.48
2017-09-12T01:16:47.247Z,11.43
2017-09-12T01:19:15.631Z,11.49
2017-09-12T01:21:43.976Z,11.43
2017-09-12T01:24:12.362Z,11.37
2017-09-12T01:26:40.697Z,11.40
2017-09-12T01:29:09.034Z,11.40
2017-09-12T01:31:37.403Z,11.46
2017-09-12T01:34:05.759Z,11.40
2017-09-12T01:36:34.094Z,11.37
2017-09-12T01:39:02.427Z,11.35
2017-09-12T01:41:30.795Z,11.30
2017-09-12T01:43:59.131Z,11.30
2017-09-12T01:46:27.526Z,11.23
2017-09-12T01:48:55.842Z,11.26
2017-09-12T01:51:24.202Z,11.20
2017-09-12T01:53:52.546Z,11.20
2017-09-12T01:56:20.877Z,11.18
2017-09-12T01:58:49.345Z,11.20
2017-09-12T02:01:17.724Z,11.10
2017-09-12T02:03:46.058Z,11.08
2017-09-12T02:06:14.389Z,11.14
2017-09-12T02:08:42.722Z,11.17
2017-09-12T02:11:11.087Z,11.17
2017-09-12T02:13:39.472Z,11.15
2017-09-12T02:16:07.798Z,11.18
2017-09-12T02:18:36.146Z,11.18
2017-09-12T02:21:04.486Z,11.12
2017-09-12T02:23:32.822Z,10.95
2017-09-12T02:26:01.158Z,11.03
2017-09-12T02:28:29.558Z,10.98
2017-09-12T02:30:57.894Z,10.95
2017-09-12T02:33:26.846Z,10.92
2017-09-12T02:35:55.199Z,10.88
2017-09-12T02:38:23.540Z,10.86
2017-09-12T02:40:51.862Z,10.89
2017-09-12T02:43:20.203Z,10.90
2017-09-12T02:45:48.571Z,10.90
2017-09-12T02:48:16.908Z,10.91
2017-09-12T02:50:45.246Z,10.86
2017-09-12T02:53:13.578Z,10.84
2017-09-12T02:55:41.936Z,10.93
2017-09-12T02:58:10.318Z,10.90
2017-09-12T03:00:38.675Z,10.83
2017-09-12T03:03:07.011Z,10.80
2017-09-12T03:05:35.374Z,10.85
2017-09-12T03:08:03.712Z,10.91
2017-09-12T03:10:32.202Z,10.82
2017-09-12T03:13:00.554Z,10.74
2017-09-12T03:15:29.222Z,10.71
2017-09-12T03:17:57.574Z,10.74
2017-09-12T03:20:25.938Z,10.75
2017-09-12T03:22:54.274Z,10.80
2017-09-12T03:25:22.611Z,10.80
2017-09-12T03:27:50.945Z,10.70
2017-09-12T03:30:19.331Z,10.69
2017-09-12T03:32:47.663Z,10.69
2017-09-12T03:35:16.042Z,10.70
2017-09-12T03:37:44.383Z,10.69
2017-09-12T03:40:12.730Z,10.62
2017-09-12T03:42:41.098Z,10.74
2017-09-12T03:45:09.429Z,10.74
2017-09-12T03:47:37.762Z,10.73
2017-09-12T03:50:06.123Z,10.66
2017-09-12T03:52:34.462Z,10.63
2017-09-12T03:55:02.798Z,10.68
2017-09-12T03:57:31.134Z,10.67
2017-09-12T03:59:59.466Z,10.59
2017-09-12T04:02:27.803Z,10.66
2017-09-12T04:04:56.162Z,10.53
2017-09-12T04:07:24.686Z,10.56
2017-09-12T04:09:53.045Z,10.55
2017-09-12T04:12:21.378Z,10.54
2017-09-12T04:14:49.722Z,10.49
2017-09-12T04:17:18.075Z,10.46
2017-09-12T04:19:46.435Z,10.51
2017-09-12T04:22:14.766Z,10.51
2017-09-12T04:24:43.117Z,10.52
2017-09-12T04:27:11.465Z,10.50
2017-09-12T04:29:39.794Z,10.52
2017-09-12T04:32:08.163Z,10.55
2017-09-12T04:34:36.494Z,10.53
2017-09-12T04:37:04.827Z,10.43
2017-09-12T04:39:33.763Z,10.45
2017-09-12T04:42:02.126Z,10.42
2017-09-12T04:44:30.462Z,10.43
2017-09-12T04:46:58.806Z,10.41
2017-09-12T04:49:27.149Z,10.33
2017-09-12T04:51:55.509Z,10.37
2017-09-12T04:54:24.840Z,10.28
2017-09-12T04:56:53.345Z,10.36
2017-09-12T04:59:21.676Z,10.25
2017-09-12T05:01:50.000Z,10.32
2017-09-12T05:04:18.335Z,10.35
2017-09-12T05:06:46.697Z,10.25
2017-09-12T05:09:15.058Z,10.13
2017-09-12T05:11:43.414Z,10.18
2017-09-12T05:14:11.751Z,10.20
2017-09-12T05:16:40.078Z,10.21
2017-09-12T05:19:08.414Z,10.20
2017-09-12T05:21:36.774Z,10.25
2017-09-12T05:24:05.107Z,10.28
2017-09-12T05:26:33.471Z,10.30
2017-09-12T05:29:01.878Z,10.38
2017-09-12T05:31:30.238Z,10.31
2017-09-12T05:33:58.627Z,10.28
2017-09-12T05:36:26.966Z,10.28
2017-09-12T05:38:55.322Z,10.25
2017-09-12T05:41:23.670Z,10.29
2017-09-12T05:43:52.003Z,10.35
2017-09-12T05:46:20.422Z,10.30
2017-09-12T05:48:48.754Z,10.42
2017-09-12T05:51:17.927Z,10.39
2017-09-12T05:53:46.435Z,10.48
2017-09-12T05:56:14.768Z,10.42
2017-09-12T05:58:43.107Z,10.43
2017-09-12T06:01:11.449Z,10.50
2017-09-12T06:03:39.821Z,10.49
2017-09-12T06:06:08.163Z,10.48
2017-09-12T06:08:36.496Z,10.61
2017-09-12T06:11:04.832Z,10.71
2017-09-12T06:13:33.198Z,10.66
2017-09-12T06:16:01.748Z,10.65
2017-09-12T06:18:30.166Z,10.74
2017-09-12T06:20:58.525Z,10.79
2017-09-12T06:23:26.873Z,10.76
2017-09-12T06:25:55.200Z,10.81
2017-09-12T06:28:23.531Z,10.77
2017-09-12T06:30:51.863Z,10.66
2017-09-12T06:33:20.198Z,10.79
2017-09-12T06:35:48.548Z,10.73
2017-09-12T06:38:16.957Z,10.74
2017-09-12T06:40:45.341Z,10.86
2017-09-12T06:43:13.683Z,11.01
2017-09-12T06:45:42.036Z,11.14
2017-09-12T06:48:10.379Z,11.19
2017-09-12T06:50:38.715Z,11.06
2017-09-12T06:53:07.059Z,11.19
2017-09-12T06:55:35.407Z,11.14
2017-09-12T06:58:03.758Z,11.01
2017-09-12T07:00:32.111Z,10.94
2017-09-12T07:03:00.494Z,10.76
2017-09-12T07:05:28.824Z,10.82
2017-09-12T07:07:57.158Z,10.71
2017-09-12T07:10:25.494Z,10.72
2017-09-12T07:12:53.822Z,10.67
2017-09-12T07:15:22.154Z,10.64
2017-09-12T07:17:50.488Z,10.60
2017-09-12T07:20:18.865Z,10.62
2017-09-12T07:22:47.579Z,10.70
2017-09-12T07:25:15.917Z,10.71
2017-09-12T07:27:44.258Z,10.65
2017-09-12T07:30:12.594Z,10.66
2017-09-12T07:32:40.930Z,10.69
2017-09-12T07:35:09.339Z,10.72
2017-09-12T07:37:37.764Z,10.72
2017-09-12T07:40:06.091Z,10.75
2017-09-12T07:42:34.427Z,10.84
2017-09-12T07:45:02.859Z,10.83
2017-09-12T07:47:31.238Z,10.85
2017-09-12T07:49:59.598Z,11.05
2017-09-12T07:52:27.922Z,11.06
2017-09-12T07:54:56.265Z,11.28
2017-09-12T07:57:24.619Z,11.96
2017-09-12T07:59:52.955Z,12.41
2017-09-12T08:02:21.284Z,13.15
2017-09-12T08:04:49.612Z,13.13
2017-09-12T08:07:17.966Z,13.17
2017-09-12T08:09:46.298Z,13.63
2017-09-12T08:12:14.662Z,13.15
2017-09-12T08:14:43.052Z,12.29
2017-09-12T08:17:11.375Z,12.09
2017-09-12T08:19:39.850Z,12.28
2017-09-12T08:22:08.211Z,12.53
2017-09-12T08:24:36.546Z,12.64
2017-09-12T08:27:04.878Z,14.12
2017-09-12T08:29:33.298Z,15.36
2017-09-12T08:32:01.634Z,16.68
2017-09-12T08:34:30.015Z,17.22
2017-09-12T08:36:58.395Z,16.78
2017-09-12T08:39:26.726Z,16.59
2017-09-12T08:41:55.057Z,16.55
2017-09-12T08:44:23.406Z,15.93
2017-09-12T08:46:51.743Z,16.23
2017-09-12T08:49:20.091Z,16.73
2017-09-12T08:51:48.426Z,15.49
2017-09-12T08:54:16.758Z,14.75
2017-09-12T08:56:45.094Z,13.95
2017-09-12T08:59:13.647Z,13.30
2017-09-12T09:01:42.006Z,12.87
2017-09-12T09:04:10.326Z,12.45
2017-09-12T09:06:38.662Z,12.87
2017-09-12T09:09:07.230Z,14.02
2017-09-12T09:11:35.769Z,16.41
2017-09-12T09:14:04.169Z,17.35
2017-09-12T09:16:32.567Z,17.05
2017-09-12T09:19:00.899Z,16.57
2017-09-12T09:21:30.118Z,15.17
2017-09-12T09:23:58.452Z,14.59
2017-09-12T09:26:26.790Z,13.91
2017-09-12T09:28:55.122Z,14.57
2017-09-12T09:31:23.464Z,15.57
2017-09-12T09:33:51.793Z,17.01
2017-09-12T09:36:20.203Z,16.52
2017-09-12T09:38:48.541Z,17.01
2017-09-12T09:41:16.894Z,17.97
2017-09-12T09:43:45.225Z,18.11
2017-09-12T09:46:13.558Z,18.80
2017-09-12T09:48:41.894Z,19.17
2017-09-12T09:51:10.280Z,19.46
2017-09-12T09:53:38.734Z,19.17
2017-09-12T09:56:07.071Z,18.22
2017-09-12T09:58:35.416Z,17.41
2017-09-12T10:01:03.774Z,16.42
2017-09-12T10:03:32.131Z,18.10
2017-09-12T10:06:00.527Z,18.06
2017-09-12T10:08:28.883Z,19.58
2017-09-12T10:10:57.227Z,18.56
2017-09-12T10:13:25.566Z,17.57
2017-09-12T10:15:53.926Z,17.33
2017-09-12T10:18:22.260Z,18.12
2017-09-12T10:20:50.638Z,16.95
2017-09-12T10:23:18.995Z,15.70
2017-09-12T10:25:47.346Z,14.24
2017-09-12T10:28:15.734Z,13.71
2017-09-12T10:30:44.099Z,13.42
2017-09-12T10:33:12.462Z,12.98
2017-09-12T10:35:40.798Z,12.88
2017-09-12T10:38:09.157Z,12.81
2017-09-12T10:40:37.491Z,12.65
2017-09-12T10:43:05.826Z,12.81
2017-09-12T10:45:34.178Z,12.70
2017-09-12T10:48:02.655Z,12.69
2017-09-12T10:50:31.034Z,12.62
2017-09-12T10:52:59.391Z,12.54
2017-09-12T10:55:27.726Z,12.57
2017-09-12T10:57:56.075Z,12.67
2017-09-12T11:00:24.411Z,12.59
2017-09-12T11:02:52.770Z,12.58
2017-09-12T11:05:21.119Z,12.77
2017-09-12T11:07:49.450Z,12.73
2017-09-12T11:10:18.165Z,13.49
2017-09-12T11:12:46.544Z,15.04
2017-09-12T11:15:14.903Z,16.57
2017-09-12T11:17:43.267Z,17.95
2017-09-12T11:20:11.649Z,18.21
2017-09-12T11:22:40.238Z,17.36
2017-09-12T11:25:08.562Z,17.51
2017-09-12T11:27:36.943Z,17.86
2017-09-12T11:30:05.307Z,17.09
2017-09-12T11:32:33.648Z,15.82
2017-09-12T11:35:02.083Z,15.17
2017-09-12T11:37:30.455Z,14.86
2017-09-12T11:39:58.797Z,15.66
2017-09-12T11:42:27.163Z,16.96
2017-09-12T11:44:55.536Z,17.95
2017-09-12T11:47:23.877Z,17.77
2017-09-12T11:49:52.211Z,16.73
2017-09-12T11:52:20.604Z,15.18
2017-09-12T11:54:48.977Z,14.10
2017-09-12T11:57:17.330Z,13.89
2017-09-12T11:59:45.773Z,14.17
2017-09-12T12:02:15.318Z,13.96
2017-09-12T12:04:43.697Z,13.98
2017-09-12T12:07:12.074Z,15.18
2017-09-12T12:09:40.459Z,16.27
2017-09-12T12:12:08.967Z,16.50
2017-09-12T12:14:37.375Z,16.76
2017-09-12T12:17:05.713Z,16.49
2017-09-12T12:19:34.143Z,16.28
2017-09-12T12:22:02.472Z,15.51
2017-09-12T12:26:58.303Z,15.18
2017-09-12T12:29:26.633Z,15.17
2017-09-12T12:31:54.990Z,15.33
2017-09-12T12:34:23.322Z,15.16
2017-09-12T12:36:51.695Z,15.23
2017-09-12T12:39:20.076Z,15.12
2017-09-12T12:41:48.440Z,15.20
2017-09-12T12:44:16.783Z,15.44
2017-09-12T12:46:45.246Z,15.76
2017-09-12T12:49:13.583Z,15.73
2017-09-12T12:51:41.921Z,15.42
2017-09-12T12:54:10.358Z,14.90
2017-09-12T12:56:38.719Z,15.18
2017-09-12T12:59:07.053Z,14.99
2017-09-12T13:01:35.386Z,13.74
2017-09-12T13:04:03.765Z,13.16
2017-09-12T13:06:32.098Z,12.56
2017-09-12T13:09:00.523Z,11.90
2017-09-12T13:11:28.859Z,11.97
2017-09-12T13:13:57.839Z,12.00
2017-09-12T13:16:26.275Z,12.19
2017-09-12T13:18:54.605Z,12.07
2017-09-12T13:21:22.986Z,11.92
2017-09-12T13:23:51.337Z,11.64
2017-09-12T13:26:19.850Z,11.36
2017-09-12T13:28:48.177Z,11.25
2017-09-12T13:31:16.616Z,11.14
2017-09-12T13:33:44.975Z,11.42
2017-09-12T13:36:13.311Z,11.94
2017-09-12T13:38:41.649Z,12.44
2017-09-12T13:41:10.002Z,12.76
2017-09-12T13:43:38.361Z,12.94
2017-09-12T13:46:06.959Z,13.03
2017-09-12T13:48:35.374Z,13.21
2017-09-12T13:51:03.743Z,12.94
2017-09-12T13:53:32.583Z,13.00
2017-09-12T13:56:00.938Z,12.96
2017-09-12T13:58:29.335Z,12.47
2017-09-12T14:00:58.871Z,12.26
2017-09-12T14:03:27.811Z,12.24
2017-09-12T14:05:56.168Z,12.14
2017-09-12T14:08:24.520Z,12.13
2017-09-12T14:10:52.907Z,12.22
2017-09-12T14:13:23.138Z,12.10
2017-09-12T14:15:51.682Z,12.43
2017-09-12T14:18:22.402Z,12.82
2017-09-12T14:20:52.680Z,13.02
2017-09-12T14:23:27.395Z,13.04
2017-09-12T14:25:58.967Z,12.99
2017-09-12T14:28:27.294Z,12.74
2017-09-12T14:30:55.634Z,12.67
2017-09-12T14:33:23.989Z,12.67
2017-09-12T14:35:52.321Z,12.51
2017-09-12T14:38:22.674Z,12.40
2017-09-12T14:40:51.004Z,12.37
2017-09-12T14:43:19.578Z,12.18
2017-09-12T14:45:47.914Z,12.07
2017-09-12T14:48:16.248Z,11.84
2017-09-12T14:50:44.591Z,11.87
2017-09-12T14:53:13.028Z,12.07
2017-09-12T14:55:41.427Z,12.18
2017-09-12T14:58:09.890Z,12.29
2017-09-12T15:00:38.251Z,12.13
2017-09-12T15:03:06.647Z,11.92
2017-09-12T15:05:35.073Z,11.66
2017-09-12T15:08:04.372Z,11.50
2017-09-12T15:10:32.733Z,11.52
2017-09-12T15:13:01.091Z,11.18
2017-09-12T15:15:29.490Z,11.05
2017-09-12T15:17:57.823Z,10.97
2017-09-12T15:20:26.187Z,11.05
2017-09-12T15:22:54.510Z,11.14
2017-09-12T15:25:22.845Z,11.45
2017-09-12T15:27:51.206Z,11.65
2017-09-12T15:30:19.535Z,11.88
2017-09-12T15:32:47.870Z,11.99
2017-09-12T15:35:16.206Z,12.14
2017-09-12T15:37:44.542Z,11.95
2017-09-12T15:40:12.890Z,11.90
2017-09-12T15:42:41.210Z,11.80
2017-09-12T15:45:09.767Z,11.63
2017-09-12T15:47:38.091Z,11.46
2017-09-12T15:50:06.474Z,11.43
2017-09-12T15:52:34.810Z,11.48
2017-09-12T15:55:03.171Z,11.39
2017-09-12T15:57:31.493Z,11.49
2017-09-12T15:59:59.902Z,11.52
2017-09-12T16:02:28.226Z,11.45
2017-09-12T16:04:56.596Z,11.44
2017-09-12T16:07:25.251Z,11.40
2017-09-12T16:09:53.583Z,11.46
2017-09-12T16:12:21.943Z,11.47
2017-09-12T16:14:50.271Z,11.41
2017-09-12T16:17:18.661Z,11.41
2017-09-12T16:19:47.661Z,11.43
2017-09-12T16:22:16.035Z,11.39
2017-09-12T16:24:44.410Z,11.31
2017-09-12T16:27:13.071Z,11.30
2017-09-12T16:29:41.426Z,11.29
2017-09-12T16:32:09.897Z,11.37
2017-09-12T16:34:38.267Z,11.22
2017-09-12T16:37:06.607Z,11.22
2017-09-12T16:39:34.942Z,11.14
2017-09-12T16:42:03.331Z,11.16
2017-09-12T16:44:31.706Z,11.16
2017-09-12T16:47:00.337Z,11.09
2017-09-12T16:49:29.265Z,11.06
2017-09-12T16:51:57.767Z,11.08
2017-09-12T16:54:26.123Z,10.99
2017-09-12T16:56:54.456Z,10.95
2017-09-12T16:59:22.787Z,10.92
2017-09-12T17:01:51.114Z,10.89
2017-09-12T17:04:19.486Z,10.97
2017-09-12T17:06:47.835Z,10.82
2017-09-12T17:09:16.170Z,10.87
2017-09-12T17:11:44.517Z,10.72
2017-09-12T17:14:12.903Z,10.72
2017-09-12T17:16:41.281Z,10.67
2017-09-12T17:19:09.639Z,10.72
2017-09-12T17:21:37.979Z,10.71
2017-09-12T17:24:06.326Z,10.67
2017-09-12T17:26:34.710Z,10.60
2017-09-12T17:29:03.090Z,10.55
2017-09-12T17:31:31.436Z,10.51
2017-09-12T17:33:59.858Z,10.46
2017-09-12T17:36:28.244Z,10.41
2017-09-12T17:38:56.570Z,10.37
2017-09-12T17:41:25.041Z,10.35
2017-09-12T17:43:53.375Z,10.36
2017-09-12T17:46:21.723Z,10.40
2017-09-12T17:48:50.084Z,10.31
2017-09-12T17:51:18.419Z,10.34
2017-09-12T17:53:51.320Z,10.26
2017-09-12T17:56:20.002Z,10.12
2017-09-12T17:58:48.468Z,10.00
2017-09-12T18:01:16.814Z,9.97
2017-09-12T18:03:45.162Z,10.06
2017-09-12T18:06:13.490Z,10.04
2017-09-12T18:08:43.970Z,10.02
2017-09-12T18:11:12.444Z,10.05
2017-09-12T18:13:40.848Z,10.09
2017-09-12T18:16:09.174Z,10.06
2017-09-12T18:18:37.786Z,10.08
2017-09-12T18:21:06.139Z,10.05
2017-09-12T18:23:34.475Z,10.00
2017-09-12T18:26:02.840Z,10.00
2017-09-12T18:28:31.606Z,10.00
2017-09-12T18:30:59.991Z,9.99
2017-09-12T18:33:28.611Z,10.01
2017-09-12T18:35:57.093Z,10.01
2017-09-12T18:38:25.460Z,9.97
2017-09-12T18:40:53.808Z,10.06
2017-09-12T18:43:22.153Z,10.08
2017-09-12T18:45:51.047Z,10.05
2017-09-12T18:48:20.082Z,10.07
2017-09-12T18:50:48.453Z,10.07
2017-09-12T18:53:17.847Z,10.12
2017-09-12T18:55:46.457Z,10.17
2017-09-12T18:58:15.170Z,10.25
2017-09-12T19:00:43.507Z,10.30
2017-09-12T19:03:11.847Z,10.24
2017-09-12T19:05:40.371Z,10.20
2017-09-12T19:08:08.730Z,10.20
2017-09-12T19:10:37.843Z,10.11
2017-09-12T19:13:06.183Z,10.08
2017-09-12T19:15:34.799Z,10.04
2017-09-12T19:18:03.179Z,10.07
2017-09-12T19:20:31.535Z,10.03
2017-09-12T19:22:59.998Z,10.09
2017-09-12T19:25:28.328Z,10.03
2017-09-12T19:27:56.661Z,10.01
2017-09-12T19:30:25.030Z,9.96
2017-09-12T19:32:53.358Z,9.93
2017-09-12T19:35:21.686Z,9.91
2017-09-12T19:37:50.049Z,9.92
2017-09-12T19:40:18.401Z,9.94
2017-09-12T19:42:46.722Z,9.97
2017-09-12T19:45:15.051Z,9.92
2017-09-12T19:47:43.379Z,9.98
2017-09-12T19:50:11.738Z,10.03
2017-09-12T19:52:40.089Z,9.95
2017-09-12T19:55:08.439Z,9.89
2017-09-12T19:57:36.810Z,9.87
2017-09-12T20:00:05.143Z,9.82
2017-09-12T20:02:33.470Z,9.91
2017-09-12T20:05:01.979Z,9.86
2017-09-12T20:07:30.367Z,9.78
2017-09-12T20:09:58.701Z,9.83
2017-09-12T20:12:27.030Z,9.77
2017-09-12T20:14:55.360Z,9.66
2017-09-12T20:17:23.685Z,9.55
2017-09-12T20:19:52.155Z,9.58
2017-09-12T20:22:20.495Z,9.51
2017-09-12T20:24:48.819Z,9.50
2017-09-12T20:27:17.158Z,9.43
2017-09-12T20:29:45.483Z,9.48
2017-09-12T20:32:14.012Z,9.50
2017-09-12T20:34:42.335Z,9.52
2017-09-12T20:37:10.667Z,9.53
2017-09-12T20:39:39.000Z,9.59
2017-09-12T20:42:07.661Z,9.59
2017-09-12T20:44:35.987Z,9.64
2017-09-12T20:47:04.319Z,9.69
2017-09-12T20:49:32.662Z,9.70
2017-09-12T20:52:00.996Z,9.69
2017-09-12T20:54:29.327Z,9.68
2017-09-12T20:56:57.662Z,9.71
2017-09-12T20:59:25.999Z,9.61
2017-09-12T21:01:54.335Z,9.61
2017-09-12T21:04:22.671Z,9.60
2017-09-12T21:06:50.990Z,9.55
2017-09-12T21:09:19.341Z,9.58
2017-09-12T21:11:47.667Z,9.59
2017-09-12T21:14:16.024Z,9.62
2017-09-12T21:16:44.383Z,9.56
2017-09-12T21:19:12.703Z,9.49
2017-09-12T21:21:41.060Z,9.53
2017-09-12T21:24:09.386Z,9.53
2017-09-12T21:26:37.706Z,9.49
2017-09-12T21:29:06.040Z,9.44
2017-09-12T21:31:34.433Z,9.47
2017-09-12T21:34:02.758Z,9.39
2017-09-12T21:36:31.074Z,9.43
2017-09-12T21:38:59.406Z,9.41
2017-09-12T21:41:27.731Z,9.47
2017-09-12T21:43:56.059Z,9.49
2017-09-12T21:46:24.386Z,9.51
2017-09-12T21:48:52.714Z,9.49
2017-09-12T21:51:21.047Z,9.49
2017-09-12T21:53:49.403Z,9.42
2017-09-12T21:56:17.730Z,9.41
2017-09-12T21:58:46.115Z,9.42
2017-09-12T22:01:14.440Z,9.39
2017-09-12T22:03:42.759Z,9.39
2017-09-12T22:06:11.096Z,9.36
2017-09-12T22:08:39.445Z,9.37
2017-09-12T22:11:07.774Z,9.37
2017-09-12T22:13:36.115Z,9.45
2017-09-12T22:16:04.446Z,9.48
2017-09-12T22:18:32.783Z,9.46
2017-09-12T22:21:01.114Z,9.43
2017-09-12T22:23:29.437Z,9.42
2017-09-12T22:25:57.822Z,9.43
2017-09-12T22:28:26.152Z,9.40
2017-09-12T22:30:54.503Z,9.42
2017-09-12T22:33:22.830Z,9.43
2017-09-12T22:35:51.167Z,9.47
2017-09-12T22:38:19.520Z,9.44
2017-09-12T22:40:47.843Z,9.44
2017-09-12T22:43:16.179Z,9.50
2017-09-12T22:45:44.526Z,9.49
2017-09-12T22:48:12.939Z,9.48
2017-09-12T22:50:41.294Z,9.44
2017-09-12T22:53:09.930Z,9.50
2017-09-12T22:55:38.278Z,9.45
2017-09-12T22:58:06.654Z,9.47
2017-09-12T23:00:34.990Z,9.44
2017-09-12T23:03:03.334Z,9.37
2017-09-12T23:05:31.789Z,9.36
2017-09-12T23:08:00.147Z,9.35
2017-09-12T23:10:28.578Z,9.36
2017-09-12T23:12:56.966Z,9.34
2017-09-12T23:15:25.354Z,9.36
2017-09-12T23:17:53.750Z,9.35
2017-09-12T23:20:22.078Z,9.32
2017-09-12T23:22:50.415Z,9.32
2017-09-12T23:25:18.818Z,9.29
2017-09-12T23:27:47.157Z,9.20
2017-09-12T23:30:15.606Z,9.22
2017-09-12T23:32:43.946Z,9.24
2017-09-12T23:35:12.282Z,9.25
2017-09-12T23:37:40.630Z,9.23
2017-09-12T23:40:08.996Z,9.24
2017-09-12T23:42:37.351Z,9.25
2017-09-12T23:45:05.707Z,9.27
2017-09-12T23:47:34.059Z,9.29
2017-09-12T23:50:02.394Z,9.30
2017-09-12T23:52:30.818Z,9.24
2017-09-12T23:54:59.326Z,9.31
2017-09-12T23:57:27.698Z,9.32
2017-09-12T23:59:56.035Z,9.36
